sensor_id;sensor_type;location;lat;lon;timestamp;P1;durP1;ratioP1;P2;durP2;ratioP2
31308;SDS011;17936;52.446;10.840;2022-09-09T00:04:46;4.38;;;3.03;;
31308;SDS011;17936;52.446;10.840;2022-09-09T00:10:16;5.53;;;2.78;;
31308;SDS011;17936;52.446;10.840;2022-09-09T00:18:49;7.65;;;2.58;;
31308;SDS011;17936;52.446;10.840;2022-09-09T00:21:38;5.47;;;2.28;;
31308;SDS011;17936;52.446;10.840;2022-09-09T00:24:32;5.43;;;2.00;;
31308;SDS011;17936;52.446;10.840;2022-09-09T00:27:08;6.18;;;1.73;;
31308;SDS011;17936;52.446;10.840;2022-09-09T00:30:14;3.33;;;2.08;;
31308;SDS011;17936;52.446;10.840;2022-09-09T00:32:53;4.80;;;1.95;;
31308;SDS011;17936;52.446;10.840;2022-09-09T00:35:47;2.38;;;1.40;;
31308;SDS011;17936;52.446;10.840;2022-09-09T00:38:23;4.28;;;1.90;;
31308;SDS011;17936;52.446;10.840;2022-09-09T00:40:50;4.80;;;1.92;;
31308;SDS011;17936;52.446;10.840;2022-09-09T00:43:31;5.25;;;1.80;;
31308;SDS011;17936;52.446;10.840;2022-09-09T00:46:10;4.07;;;1.52;;
31308;SDS011;17936;52.446;10.840;2022-09-09T00:51:44;6.38;;;1.50;;
31308;SDS011;17936;52.446;10.840;2022-09-09T01:02:16;3.08;;;1.27;;
31308;SDS011;17936;52.446;10.840;2022-09-09T01:04:55;4.03;;;1.60;;
31308;SDS011;17936;52.446;10.840;2022-09-09T01:07:47;2.00;;;1.25;;
31308;SDS011;17936;52.446;10.840;2022-09-09T01:10:21;2.33;;;1.50;;
31308;SDS011;17936;52.446;10.840;2022-09-09T01:12:55;3.40;;;1.52;;
31308;SDS011;17936;52.446;10.840;2022-09-09T01:15:28;3.38;;;1.70;;
31308;SDS011;17936;52.446;10.840;2022-09-09T01:18:04;5.22;;;1.60;;
31308;SDS011;17936;52.446;10.840;2022-09-09T01:23:35;1.75;;;1.10;;
31308;SDS011;17936;52.446;10.840;2022-09-09T01:26:13;2.83;;;1.23;;
31308;SDS011;17936;52.446;10.840;2022-09-09T01:28:49;5.35;;;1.48;;
31308;SDS011;17936;52.446;10.840;2022-09-09T01:31:24;4.00;;;1.48;;
31308;SDS011;17936;52.446;10.840;2022-09-09T01:33:54;3.17;;;1.30;;
31308;SDS011;17936;52.446;10.840;2022-09-09T01:36:25;6.63;;;1.40;;
31308;SDS011;17936;52.446;10.840;2022-09-09T01:38:58;3.28;;;1.10;;
31308;SDS011;17936;52.446;10.840;2022-09-09T01:41:24;10.75;;;1.20;;
31308;SDS011;17936;52.446;10.840;2022-09-09T01:43:49;4.55;;;1.50;;
31308;SDS011;17936;52.446;10.840;2022-09-09T01:46:16;6.35;;;1.05;;
31308;SDS011;17936;52.446;10.840;2022-09-09T01:48:44;4.25;;;1.00;;
31308;SDS011;17936;52.446;10.840;2022-09-09T01:51:11;3.63;;;1.10;;
31308;SDS011;17936;52.446;10.840;2022-09-09T01:53:37;5.65;;;1.17;;
31308;SDS011;17936;52.446;10.840;2022-09-09T01:59:57;4.72;;;1.10;;
31308;SDS011;17936;52.446;10.840;2022-09-09T02:04:48;3.53;;;1.10;;
31308;SDS011;17936;52.446;10.840;2022-09-09T02:08:17;3.03;;;0.90;;
31308;SDS011;17936;52.446;10.840;2022-09-09T02:10:17;3.83;;;1.17;;
31308;SDS011;17936;52.446;10.840;2022-09-09T02:12:51;3.15;;;0.90;;
31308;SDS011;17936;52.446;10.840;2022-09-09T02:15:26;1.38;;;1.08;;
31308;SDS011;17936;52.446;10.840;2022-09-09T02:17:59;3.10;;;1.17;;
31308;SDS011;17936;52.446;10.840;2022-09-09T02:20:56;2.97;;;0.90;;
31308;SDS011;17936;52.446;10.840;2022-09-09T02:23:23;4.00;;;1.10;;
31308;SDS011;17936;52.446;10.840;2022-09-09T02:25:49;1.25;;;0.80;;
31308;SDS011;17936;52.446;10.840;2022-09-09T02:28:18;4.03;;;0.90;;
31308;SDS011;17936;52.446;10.840;2022-09-09T02:30:46;2.13;;;1.08;;
31308;SDS011;17936;52.446;10.840;2022-09-09T02:33:16;3.13;;;1.00;;
31308;SDS011;17936;52.446;10.840;2022-09-09T02:35:42;5.25;;;1.27;;
31308;SDS011;17936;52.446;10.840;2022-09-09T02:38:10;2.80;;;0.95;;
31308;SDS011;17936;52.446;10.840;2022-09-09T02:40:38;3.85;;;0.93;;
31308;SDS011;17936;52.446;10.840;2022-09-09T02:43:04;2.17;;;0.95;;
31308;SDS011;17936;52.446;10.840;2022-09-09T02:45:57;3.80;;;1.20;;
31308;SDS011;17936;52.446;10.840;2022-09-09T02:48:46;3.22;;;0.88;;
31308;SDS011;17936;52.446;10.840;2022-09-09T02:51:24;1.90;;;0.82;;
31308;SDS011;17936;52.446;10.840;2022-09-09T02:54:06;3.47;;;0.90;;
31308;SDS011;17936;52.446;10.840;2022-09-09T02:56:55;4.25;;;1.00;;
31308;SDS011;17936;52.446;10.840;2022-09-09T02:59:28;2.03;;;0.90;;
31308;SDS011;17936;52.446;10.840;2022-09-09T03:01:55;2.60;;;0.80;;
31308;SDS011;17936;52.446;10.840;2022-09-09T03:04:20;6.00;;;1.10;;
31308;SDS011;17936;52.446;10.840;2022-09-09T03:06:46;1.33;;;0.80;;
31308;SDS011;17936;52.446;10.840;2022-09-09T03:09:12;1.75;;;1.15;;
31308;SDS011;17936;52.446;10.840;2022-09-09T03:11:37;2.97;;;0.75;;
31308;SDS011;17936;52.446;10.840;2022-09-09T03:14:03;3.25;;;0.90;;
31308;SDS011;17936;52.446;10.840;2022-09-09T03:16:29;13.02;;;1.52;;
31308;SDS011;17936;52.446;10.840;2022-09-09T03:18:55;3.72;;;1.27;;
31308;SDS011;17936;52.446;10.840;2022-09-09T03:21:20;3.10;;;1.17;;
31308;SDS011;17936;52.446;10.840;2022-09-09T03:23:46;5.40;;;1.52;;
31308;SDS011;17936;52.446;10.840;2022-09-09T03:26:12;2.63;;;1.15;;
31308;SDS011;17936;52.446;10.840;2022-09-09T03:28:39;3.67;;;1.10;;
31308;SDS011;17936;52.446;10.840;2022-09-09T03:31:06;1.90;;;0.90;;
31308;SDS011;17936;52.446;10.840;2022-09-09T03:33:36;1.85;;;0.95;;
31308;SDS011;17936;52.446;10.840;2022-09-09T03:36:23;2.25;;;1.42;;
31308;SDS011;17936;52.446;10.840;2022-09-09T03:38:51;2.13;;;0.85;;
31308;SDS011;17936;52.446;10.840;2022-09-09T03:41:17;5.38;;;1.15;;
31308;SDS011;17936;52.446;10.840;2022-09-09T03:43:43;1.95;;;1.10;;
31308;SDS011;17936;52.446;10.840;2022-09-09T03:46:09;4.00;;;0.82;;
31308;SDS011;17936;52.446;10.840;2022-09-09T03:48:34;4.53;;;1.10;;
31308;SDS011;17936;52.446;10.840;2022-09-09T03:51:00;1.70;;;0.93;;
31308;SDS011;17936;52.446;10.840;2022-09-09T03:53:27;3.28;;;1.40;;
31308;SDS011;17936;52.446;10.840;2022-09-09T03:55:54;2.30;;;0.90;;
31308;SDS011;17936;52.446;10.840;2022-09-09T03:58:21;1.92;;;0.90;;
31308;SDS011;17936;52.446;10.840;2022-09-09T04:00:52;2.65;;;1.27;;
31308;SDS011;17936;52.446;10.840;2022-09-09T04:03:19;6.13;;;1.25;;
31308;SDS011;17936;52.446;10.840;2022-09-09T04:05:45;4.40;;;1.23;;
31308;SDS011;17936;52.446;10.840;2022-09-09T04:08:14;1.30;;;1.10;;
31308;SDS011;17936;52.446;10.840;2022-09-09T04:10:39;2.63;;;0.90;;
31308;SDS011;17936;52.446;10.840;2022-09-09T04:13:05;2.42;;;1.10;;
31308;SDS011;17936;52.446;10.840;2022-09-09T04:15:31;3.75;;;1.27;;
31308;SDS011;17936;52.446;10.840;2022-09-09T04:17:57;2.67;;;1.40;;
31308;SDS011;17936;52.446;10.840;2022-09-09T04:20:22;1.35;;;1.25;;
31308;SDS011;17936;52.446;10.840;2022-09-09T04:22:48;4.25;;;1.67;;
31308;SDS011;17936;52.446;10.840;2022-09-09T04:25:14;6.40;;;1.42;;
31308;SDS011;17936;52.446;10.840;2022-09-09T04:27:39;3.45;;;1.20;;
31308;SDS011;17936;52.446;10.840;2022-09-09T04:30:05;4.22;;;1.30;;
31308;SDS011;17936;52.446;10.840;2022-09-09T04:32:32;2.03;;;1.08;;
31308;SDS011;17936;52.446;10.840;2022-09-09T04:35:01;3.90;;;1.42;;
31308;SDS011;17936;52.446;10.840;2022-09-09T04:37:31;6.13;;;1.80;;
31308;SDS011;17936;52.446;10.840;2022-09-09T04:39:57;8.00;;;1.63;;
31308;SDS011;17936;52.446;10.840;2022-09-09T04:42:24;3.03;;;1.27;;
31308;SDS011;17936;52.446;10.840;2022-09-09T04:44:52;2.65;;;1.23;;
31308;SDS011;17936;52.446;10.840;2022-09-09T04:47:19;2.88;;;1.15;;
31308;SDS011;17936;52.446;10.840;2022-09-09T04:49:44;3.45;;;1.33;;
31308;SDS011;17936;52.446;10.840;2022-09-09T04:52:10;5.63;;;1.10;;
31308;SDS011;17936;52.446;10.840;2022-09-09T04:54:35;2.80;;;1.23;;
31308;SDS011;17936;52.446;10.840;2022-09-09T04:57:01;3.38;;;1.42;;
31308;SDS011;17936;52.446;10.840;2022-09-09T04:59:27;1.27;;;1.05;;
31308;SDS011;17936;52.446;10.840;2022-09-09T05:01:52;2.65;;;1.33;;
31308;SDS011;17936;52.446;10.840;2022-09-09T05:04:20;4.30;;;1.30;;
31308;SDS011;17936;52.446;10.840;2022-09-09T05:06:45;4.40;;;1.58;;
31308;SDS011;17936;52.446;10.840;2022-09-09T05:09:11;3.22;;;1.45;;
31308;SDS011;17936;52.446;10.840;2022-09-09T05:11:36;6.63;;;1.35;;
31308;SDS011;17936;52.446;10.840;2022-09-09T05:14:03;2.50;;;1.30;;
31308;SDS011;17936;52.446;10.840;2022-09-09T05:16:29;3.28;;;1.00;;
31308;SDS011;17936;52.446;10.840;2022-09-09T05:18:55;5.10;;;1.38;;
31308;SDS011;17936;52.446;10.840;2022-09-09T05:21:22;3.58;;;1.55;;
31308;SDS011;17936;52.446;10.840;2022-09-09T05:23:51;4.22;;;1.50;;
31308;SDS011;17936;52.446;10.840;2022-09-09T05:26:18;5.68;;;1.38;;
31308;SDS011;17936;52.446;10.840;2022-09-09T05:28:45;3.55;;;1.50;;
31308;SDS011;17936;52.446;10.840;2022-09-09T05:31:12;2.88;;;1.35;;
31308;SDS011;17936;52.446;10.840;2022-09-09T05:33:39;1.83;;;1.33;;
31308;SDS011;17936;52.446;10.840;2022-09-09T05:36:12;2.47;;;1.30;;
31308;SDS011;17936;52.446;10.840;2022-09-09T05:38:40;5.03;;;1.70;;
31308;SDS011;17936;52.446;10.840;2022-09-09T05:41:06;2.83;;;1.38;;
31308;SDS011;17936;52.446;10.840;2022-09-09T05:43:33;4.43;;;1.58;;
31308;SDS011;17936;52.446;10.840;2022-09-09T05:46:03;4.47;;;1.52;;
31308;SDS011;17936;52.446;10.840;2022-09-09T05:48:30;3.95;;;1.50;;
31308;SDS011;17936;52.446;10.840;2022-09-09T05:50:57;6.65;;;1.90;;
31308;SDS011;17936;52.446;10.840;2022-09-09T05:53:24;5.88;;;1.52;;
31308;SDS011;17936;52.446;10.840;2022-09-09T05:55:50;4.85;;;1.75;;
31308;SDS011;17936;52.446;10.840;2022-09-09T05:58:15;5.53;;;2.10;;
31308;SDS011;17936;52.446;10.840;2022-09-09T06:00:41;7.93;;;2.63;;
31308;SDS011;17936;52.446;10.840;2022-09-09T06:03:10;7.20;;;2.30;;
31308;SDS011;17936;52.446;10.840;2022-09-09T06:05:36;8.32;;;2.75;;
31308;SDS011;17936;52.446;10.840;2022-09-09T06:08:02;8.02;;;1.70;;
31308;SDS011;17936;52.446;10.840;2022-09-09T06:10:28;8.35;;;1.83;;
31308;SDS011;17936;52.446;10.840;2022-09-09T06:12:53;4.40;;;1.60;;
31308;SDS011;17936;52.446;10.840;2022-09-09T06:15:19;4.90;;;1.55;;
31308;SDS011;17936;52.446;10.840;2022-09-09T06:17:44;10.10;;;1.70;;
31308;SDS011;17936;52.446;10.840;2022-09-09T06:20:10;5.68;;;1.52;;
31308;SDS011;17936;52.446;10.840;2022-09-09T06:22:38;3.25;;;1.30;;
31308;SDS011;17936;52.446;10.840;2022-09-09T06:25:06;2.47;;;1.50;;
31308;SDS011;17936;52.446;10.840;2022-09-09T06:27:33;4.40;;;1.20;;
31308;SDS011;17936;52.446;10.840;2022-09-09T06:29:59;8.02;;;1.50;;
31308;SDS011;17936;52.446;10.840;2022-09-09T06:32:24;3.67;;;1.13;;
31308;SDS011;17936;52.446;10.840;2022-09-09T06:34:53;2.78;;;1.30;;
31308;SDS011;17936;52.446;10.840;2022-09-09T06:37:19;4.18;;;1.40;;
31308;SDS011;17936;52.446;10.840;2022-09-09T06:39:45;3.50;;;1.33;;
31308;SDS011;17936;52.446;10.840;2022-09-09T06:42:10;4.78;;;1.50;;
31308;SDS011;17936;52.446;10.840;2022-09-09T06:44:36;2.55;;;1.15;;
31308;SDS011;17936;52.446;10.840;2022-09-09T06:47:01;3.40;;;1.40;;
31308;SDS011;17936;52.446;10.840;2022-09-09T06:49:27;3.10;;;1.05;;
31308;SDS011;17936;52.446;10.840;2022-09-09T06:51:53;3.70;;;1.20;;
31308;SDS011;17936;52.446;10.840;2022-09-09T06:54:18;3.75;;;1.10;;
31308;SDS011;17936;52.446;10.840;2022-09-09T06:56:45;6.10;;;1.80;;
31308;SDS011;17936;52.446;10.840;2022-09-09T06:59:10;4.75;;;1.48;;
31308;SDS011;17936;52.446;10.840;2022-09-09T07:01:40;5.38;;;1.25;;
31308;SDS011;17936;52.446;10.840;2022-09-09T07:04:08;2.83;;;1.27;;
31308;SDS011;17936;52.446;10.840;2022-09-09T07:06:37;3.95;;;1.30;;
31308;SDS011;17936;52.446;10.840;2022-09-09T07:09:08;3.13;;;0.95;;
31308;SDS011;17936;52.446;10.840;2022-09-09T07:11:39;7.53;;;1.30;;
31308;SDS011;17936;52.446;10.840;2022-09-09T07:14:06;5.78;;;1.42;;
31308;SDS011;17936;52.446;10.840;2022-09-09T07:16:32;4.68;;;1.25;;
31308;SDS011;17936;52.446;10.840;2022-09-09T07:19:02;3.65;;;1.42;;
31308;SDS011;17936;52.446;10.840;2022-09-09T07:21:29;8.48;;;1.45;;
31308;SDS011;17936;52.446;10.840;2022-09-09T07:23:55;5.82;;;1.60;;
31308;SDS011;17936;52.446;10.840;2022-09-09T07:26:23;3.28;;;1.30;;
31308;SDS011;17936;52.446;10.840;2022-09-09T07:28:50;7.38;;;1.58;;
31308;SDS011;17936;52.446;10.840;2022-09-09T07:31:20;5.32;;;1.35;;
31308;SDS011;17936;52.446;10.840;2022-09-09T07:33:47;5.97;;;1.10;;
31308;SDS011;17936;52.446;10.840;2022-09-09T07:36:14;5.25;;;1.10;;
31308;SDS011;17936;52.446;10.840;2022-09-09T07:38:43;5.35;;;1.42;;
31308;SDS011;17936;52.446;10.840;2022-09-09T07:41:15;3.75;;;1.23;;
31308;SDS011;17936;52.446;10.840;2022-09-09T07:43:43;2.08;;;0.82;;
31308;SDS011;17936;52.446;10.840;2022-09-09T07:46:10;3.97;;;1.05;;
31308;SDS011;17936;52.446;10.840;2022-09-09T07:48:37;7.38;;;0.98;;
31308;SDS011;17936;52.446;10.840;2022-09-09T07:51:09;4.63;;;1.17;;
31308;SDS011;17936;52.446;10.840;2022-09-09T07:53:37;3.72;;;1.35;;
31308;SDS011;17936;52.446;10.840;2022-09-09T07:56:07;6.00;;;1.27;;
31308;SDS011;17936;52.446;10.840;2022-09-09T07:58:38;3.38;;;1.08;;
31308;SDS011;17936;52.446;10.840;2022-09-09T08:01:06;6.70;;;1.48;;
31308;SDS011;17936;52.446;10.840;2022-09-09T08:03:37;3.40;;;0.95;;
31308;SDS011;17936;52.446;10.840;2022-09-09T08:06:03;4.88;;;1.05;;
31308;SDS011;17936;52.446;10.840;2022-09-09T08:08:31;5.05;;;0.98;;
31308;SDS011;17936;52.446;10.840;2022-09-09T08:11:05;4.88;;;1.27;;
31308;SDS011;17936;52.446;10.840;2022-09-09T08:13:33;5.45;;;1.20;;
31308;SDS011;17936;52.446;10.840;2022-09-09T08:18:32;2.83;;;1.00;;
31308;SDS011;17936;52.446;10.840;2022-09-09T08:21:04;13.43;;;1.63;;
31308;SDS011;17936;52.446;10.840;2022-09-09T08:23:36;3.35;;;0.98;;
31308;SDS011;17936;52.446;10.840;2022-09-09T08:26:05;6.40;;;0.98;;
31308;SDS011;17936;52.446;10.840;2022-09-09T08:28:35;5.72;;;1.10;;
31308;SDS011;17936;52.446;10.840;2022-09-09T08:31:14;3.60;;;1.27;;
31308;SDS011;17936;52.446;10.840;2022-09-09T08:33:44;3.05;;;1.00;;
31308;SDS011;17936;52.446;10.840;2022-09-09T08:36:13;12.50;;;0.93;;
31308;SDS011;17936;52.446;10.840;2022-09-09T08:38:41;4.88;;;1.20;;
31308;SDS011;17936;52.446;10.840;2022-09-09T08:41:11;5.32;;;1.00;;
31308;SDS011;17936;52.446;10.840;2022-09-09T08:52:54;2.67;;;0.90;;
31308;SDS011;17936;52.446;10.840;2022-09-09T08:58:27;5.55;;;1.00;;
31308;SDS011;17936;52.446;10.840;2022-09-09T09:03:35;8.02;;;1.13;;
31308;SDS011;17936;52.446;10.840;2022-09-09T09:09:19;3.38;;;0.95;;
31308;SDS011;17936;52.446;10.840;2022-09-09T09:11:50;4.18;;;0.80;;
31308;SDS011;17936;52.446;10.840;2022-09-09T09:14:26;4.00;;;0.90;;
31308;SDS011;17936;52.446;10.840;2022-09-09T09:16:59;1.98;;;0.80;;
31308;SDS011;17936;52.446;10.840;2022-09-09T09:19:28;3.78;;;0.93;;
31308;SDS011;17936;52.446;10.840;2022-09-09T09:21:58;3.67;;;1.10;;
31308;SDS011;17936;52.446;10.840;2022-09-09T09:24:41;2.47;;;0.90;;
31308;SDS011;17936;52.446;10.840;2022-09-09T09:27:25;2.55;;;1.17;;
31308;SDS011;17936;52.446;10.840;2022-09-09T09:29:56;3.70;;;1.00;;
31308;SDS011;17936;52.446;10.840;2022-09-09T09:32:26;7.22;;;1.00;;
31308;SDS011;17936;52.446;10.840;2022-09-09T09:34:58;12.95;;;1.20;;
31308;SDS011;17936;52.446;10.840;2022-09-09T09:37:29;4.88;;;1.20;;
31308;SDS011;17936;52.446;10.840;2022-09-09T09:40:13;5.28;;;1.00;;
31308;SDS011;17936;52.446;10.840;2022-09-09T09:42:54;7.05;;;0.90;;
31308;SDS011;17936;52.446;10.840;2022-09-09T09:45:35;5.93;;;1.33;;
31308;SDS011;17936;52.446;10.840;2022-09-09T09:48:10;3.30;;;1.10;;
31308;SDS011;17936;52.446;10.840;2022-09-09T09:50:46;1.50;;;0.80;;
31308;SDS011;17936;52.446;10.840;2022-09-09T09:53:21;2.20;;;0.95;;
31308;SDS011;17936;52.446;10.840;2022-09-09T09:55:53;3.58;;;1.00;;
31308;SDS011;17936;52.446;10.840;2022-09-09T09:58:25;3.47;;;0.93;;
31308;SDS011;17936;52.446;10.840;2022-09-09T10:00:58;4.40;;;1.08;;
31308;SDS011;17936;52.446;10.840;2022-09-09T10:05:51;3.85;;;0.90;;
31308;SDS011;17936;52.446;10.840;2022-09-09T10:08:17;6.72;;;1.20;;
31308;SDS011;17936;52.446;10.840;2022-09-09T10:10:52;4.38;;;0.70;;
31308;SDS011;17936;52.446;10.840;2022-09-09T10:19:07;3.70;;;1.63;;
31308;SDS011;17936;52.446;10.840;2022-09-09T10:27:31;1.92;;;0.70;;
31308;SDS011;17936;52.446;10.840;2022-09-09T10:32:58;4.20;;;0.80;;
31308;SDS011;17936;52.446;10.840;2022-09-09T10:38:17;6.88;;;1.00;;
31308;SDS011;17936;52.446;10.840;2022-09-09T10:51:33;2.13;;;0.60;;
31308;SDS011;17936;52.446;10.840;2022-09-09T10:54:30;5.30;;;0.82;;
31308;SDS011;17936;52.446;10.840;2022-09-09T10:57:03;6.07;;;0.93;;
31308;SDS011;17936;52.446;10.840;2022-09-09T10:59:40;3.78;;;0.82;;
31308;SDS011;17936;52.446;10.840;2022-09-09T11:02:13;2.40;;;0.60;;
31308;SDS011;17936;52.446;10.840;2022-09-09T11:04:53;2.78;;;0.80;;
31308;SDS011;17936;52.446;10.840;2022-09-09T11:07:27;5.95;;;1.20;;
31308;SDS011;17936;52.446;10.840;2022-09-09T11:10:01;1.38;;;0.65;;
31308;SDS011;17936;52.446;10.840;2022-09-09T11:12:31;3.00;;;0.75;;
31308;SDS011;17936;52.446;10.840;2022-09-09T11:15:20;5.00;;;0.68;;
31308;SDS011;17936;52.446;10.840;2022-09-09T11:17:56;4.43;;;1.10;;
31308;SDS011;17936;52.446;10.840;2022-09-09T11:20:26;2.70;;;0.90;;
31308;SDS011;17936;52.446;10.840;2022-09-09T11:22:54;3.63;;;0.80;;
31308;SDS011;17936;52.446;10.840;2022-09-09T11:25:45;6.15;;;0.75;;
31308;SDS011;17936;52.446;10.840;2022-09-09T11:30:56;5.22;;;0.90;;
31308;SDS011;17936;52.446;10.840;2022-09-09T11:36:49;3.78;;;1.08;;
31308;SDS011;17936;52.446;10.840;2022-09-09T11:39:36;4.20;;;0.70;;
31308;SDS011;17936;52.446;10.840;2022-09-09T11:42:17;4.30;;;0.70;;
31308;SDS011;17936;52.446;10.840;2022-09-09T11:44:45;3.85;;;1.00;;
31308;SDS011;17936;52.446;10.840;2022-09-09T11:47:22;5.68;;;0.85;;
31308;SDS011;17936;52.446;10.840;2022-09-09T11:49:51;3.80;;;1.10;;
31308;SDS011;17936;52.446;10.840;2022-09-09T11:52:25;2.10;;;0.63;;
31308;SDS011;17936;52.446;10.840;2022-09-09T11:55:09;3.92;;;0.90;;
31308;SDS011;17936;52.446;10.840;2022-09-09T11:57:37;7.75;;;0.90;;
31308;SDS011;17936;52.446;10.840;2022-09-09T12:00:04;4.28;;;1.00;;
31308;SDS011;17936;52.446;10.840;2022-09-09T12:02:31;3.85;;;0.95;;
31308;SDS011;17936;52.446;10.840;2022-09-09T12:05:09;3.72;;;1.17;;
31308;SDS011;17936;52.446;10.840;2022-09-09T12:07:51;3.35;;;0.80;;
31308;SDS011;17936;52.446;10.840;2022-09-09T12:12:51;4.75;;;0.95;;
31308;SDS011;17936;52.446;10.840;2022-09-09T12:15:24;3.03;;;0.80;;
31308;SDS011;17936;52.446;10.840;2022-09-09T12:17:54;4.38;;;0.98;;
31308;SDS011;17936;52.446;10.840;2022-09-09T12:20:35;3.10;;;0.98;;
31308;SDS011;17936;52.446;10.840;2022-09-09T12:25:57;7.68;;;0.98;;
31308;SDS011;17936;52.446;10.840;2022-09-09T12:28:35;6.80;;;0.88;;
31308;SDS011;17936;52.446;10.840;2022-09-09T12:34:02;2.50;;;0.82;;
31308;SDS011;17936;52.446;10.840;2022-09-09T12:36:57;4.07;;;0.95;;
31308;SDS011;17936;52.446;10.840;2022-09-09T12:39:29;4.05;;;1.00;;
31308;SDS011;17936;52.446;10.840;2022-09-09T12:42:02;5.78;;;1.20;;
31308;SDS011;17936;52.446;10.840;2022-09-09T12:44:29;8.13;;;0.65;;
31308;SDS011;17936;52.446;10.840;2022-09-09T12:46:55;12.57;;;1.17;;
31308;SDS011;17936;52.446;10.840;2022-09-09T12:49:28;6.00;;;1.05;;
31308;SDS011;17936;52.446;10.840;2022-09-09T12:52:02;6.18;;;0.98;;
31308;SDS011;17936;52.446;10.840;2022-09-09T12:54:33;4.07;;;1.10;;
31308;SDS011;17936;52.446;10.840;2022-09-09T12:57:01;2.10;;;0.68;;
31308;SDS011;17936;52.446;10.840;2022-09-09T12:59:35;4.60;;;1.02;;
31308;SDS011;17936;52.446;10.840;2022-09-09T13:02:02;2.78;;;0.85;;
31308;SDS011;17936;52.446;10.840;2022-09-09T13:04:36;2.75;;;0.80;;
31308;SDS011;17936;52.446;10.840;2022-09-09T13:07:05;3.33;;;0.98;;
31308;SDS011;17936;52.446;10.840;2022-09-09T13:09:34;7.78;;;0.90;;
31308;SDS011;17936;52.446;10.840;2022-09-09T13:12:00;2.53;;;0.77;;
31308;SDS011;17936;52.446;10.840;2022-09-09T13:14:32;2.65;;;0.90;;
31308;SDS011;17936;52.446;10.840;2022-09-09T13:17:03;4.82;;;0.73;;
31308;SDS011;17936;52.446;10.840;2022-09-09T13:19:37;3.03;;;0.95;;
31308;SDS011;17936;52.446;10.840;2022-09-09T13:22:14;3.88;;;1.00;;
31308;SDS011;17936;52.446;10.840;2022-09-09T13:24:45;5.07;;;1.40;;
31308;SDS011;17936;52.446;10.840;2022-09-09T13:27:27;5.80;;;1.13;;
31308;SDS011;17936;52.446;10.840;2022-09-09T13:29:59;4.95;;;0.95;;
31308;SDS011;17936;52.446;10.840;2022-09-09T13:32:25;4.43;;;0.90;;
31308;SDS011;17936;52.446;10.840;2022-09-09T13:34:52;7.07;;;0.90;;
31308;SDS011;17936;52.446;10.840;2022-09-09T13:37:24;2.95;;;0.75;;
31308;SDS011;17936;52.446;10.840;2022-09-09T13:39:55;3.80;;;0.90;;
31308;SDS011;17936;52.446;10.840;2022-09-09T13:42:28;4.25;;;1.20;;
31308;SDS011;17936;52.446;10.840;2022-09-09T13:44:56;4.03;;;0.93;;
31308;SDS011;17936;52.446;10.840;2022-09-09T13:47:34;3.08;;;0.85;;
31308;SDS011;17936;52.446;10.840;2022-09-09T13:50:20;4.13;;;0.95;;
31308;SDS011;17936;52.446;10.840;2022-09-09T13:52:48;4.95;;;1.10;;
31308;SDS011;17936;52.446;10.840;2022-09-09T13:55:16;3.10;;;0.55;;
31308;SDS011;17936;52.446;10.840;2022-09-09T13:57:53;2.13;;;0.73;;
31308;SDS011;17936;52.446;10.840;2022-09-09T14:00:20;4.28;;;0.70;;
31308;SDS011;17936;52.446;10.840;2022-09-09T14:02:47;5.32;;;1.25;;
31308;SDS011;17936;52.446;10.840;2022-09-09T14:05:14;7.68;;;1.10;;
31308;SDS011;17936;52.446;10.840;2022-09-09T14:07:40;4.47;;;1.10;;
31308;SDS011;17936;52.446;10.840;2022-09-09T14:10:08;2.60;;;0.70;;
31308;SDS011;17936;52.446;10.840;2022-09-09T14:12:33;2.63;;;0.68;;
31308;SDS011;17936;52.446;10.840;2022-09-09T14:15:02;4.88;;;0.90;;
31308;SDS011;17936;52.446;10.840;2022-09-09T14:17:28;4.28;;;0.90;;
31308;SDS011;17936;52.446;10.840;2022-09-09T14:19:55;6.57;;;1.23;;
31308;SDS011;17936;52.446;10.840;2022-09-09T14:22:21;4.43;;;0.75;;
31308;SDS011;17936;52.446;10.840;2022-09-09T14:24:47;4.15;;;1.63;;
31308;SDS011;17936;52.446;10.840;2022-09-09T14:27:13;9.38;;;1.00;;
31308;SDS011;17936;52.446;10.840;2022-09-09T14:29:39;3.47;;;0.70;;
31308;SDS011;17936;52.446;10.840;2022-09-09T14:32:05;2.63;;;0.60;;
31308;SDS011;17936;52.446;10.840;2022-09-09T14:34:30;5.45;;;1.02;;
31308;SDS011;17936;52.446;10.840;2022-09-09T14:36:57;2.67;;;0.80;;
31308;SDS011;17936;52.446;10.840;2022-09-09T14:39:23;4.35;;;0.80;;
31308;SDS011;17936;52.446;10.840;2022-09-09T14:41:48;4.82;;;0.90;;
31308;SDS011;17936;52.446;10.840;2022-09-09T14:44:14;4.90;;;0.70;;
31308;SDS011;17936;52.446;10.840;2022-09-09T14:46:40;6.25;;;1.08;;
31308;SDS011;17936;52.446;10.840;2022-09-09T14:49:07;2.03;;;0.60;;
31308;SDS011;17936;52.446;10.840;2022-09-09T14:51:38;4.80;;;0.63;;
31308;SDS011;17936;52.446;10.840;2022-09-09T14:54:03;2.63;;;0.68;;
31308;SDS011;17936;52.446;10.840;2022-09-09T14:56:31;3.72;;;1.00;;
31308;SDS011;17936;52.446;10.840;2022-09-09T14:58:59;3.15;;;1.10;;
31308;SDS011;17936;52.446;10.840;2022-09-09T15:01:26;3.10;;;0.70;;
31308;SDS011;17936;52.446;10.840;2022-09-09T15:06:19;8.80;;;1.17;;
31308;SDS011;17936;52.446;10.840;2022-09-09T15:08:45;2.47;;;0.60;;
31308;SDS011;17936;52.446;10.840;2022-09-09T15:11:11;4.13;;;1.02;;
31308;SDS011;17936;52.446;10.840;2022-09-09T15:13:38;2.88;;;0.95;;
31308;SDS011;17936;52.446;10.840;2022-09-09T15:18:32;2.85;;;0.70;;
31308;SDS011;17936;52.446;10.840;2022-09-09T15:20:58;2.97;;;0.65;;
31308;SDS011;17936;52.446;10.840;2022-09-09T15:23:25;4.65;;;0.60;;
31308;SDS011;17936;52.446;10.840;2022-09-09T15:25:51;2.72;;;0.65;;
31308;SDS011;17936;52.446;10.840;2022-09-09T15:28:18;4.47;;;0.68;;
31308;SDS011;17936;52.446;10.840;2022-09-09T15:30:46;3.05;;;0.77;;
31308;SDS011;17936;52.446;10.840;2022-09-09T15:33:13;4.13;;;0.65;;
31308;SDS011;17936;52.446;10.840;2022-09-09T15:35:38;2.33;;;0.63;;
31308;SDS011;17936;52.446;10.840;2022-09-09T15:38:04;4.78;;;1.00;;
31308;SDS011;17936;52.446;10.840;2022-09-09T15:40:30;4.68;;;0.68;;
31308;SDS011;17936;52.446;10.840;2022-09-09T15:42:57;5.72;;;1.00;;
31308;SDS011;17936;52.446;10.840;2022-09-09T15:45:23;3.45;;;0.88;;
31308;SDS011;17936;52.446;10.840;2022-09-09T15:47:48;2.50;;;0.75;;
31308;SDS011;17936;52.446;10.840;2022-09-09T15:50:14;5.28;;;1.33;;
31308;SDS011;17936;52.446;10.840;2022-09-09T15:52:39;9.30;;;1.35;;
31308;SDS011;17936;52.446;10.840;2022-09-09T15:55:05;9.63;;;1.00;;
31308;SDS011;17936;52.446;10.840;2022-09-09T15:57:33;4.78;;;0.85;;
31308;SDS011;17936;52.446;10.840;2022-09-09T15:59:59;3.30;;;0.80;;
31308;SDS011;17936;52.446;10.840;2022-09-09T16:02:25;2.45;;;0.80;;
31308;SDS011;17936;52.446;10.840;2022-09-09T16:04:51;4.50;;;0.70;;
31308;SDS011;17936;52.446;10.840;2022-09-09T16:07:17;2.90;;;1.00;;
31308;SDS011;17936;52.446;10.840;2022-09-09T16:09:42;2.65;;;0.77;;
31308;SDS011;17936;52.446;10.840;2022-09-09T16:12:08;3.17;;;1.00;;
31308;SDS011;17936;52.446;10.840;2022-09-09T16:14:40;2.63;;;1.10;;
31308;SDS011;17936;52.446;10.840;2022-09-09T16:17:06;5.10;;;1.27;;
31308;SDS011;17936;52.446;10.840;2022-09-09T16:19:32;6.78;;;2.10;;
31308;SDS011;17936;52.446;10.840;2022-09-09T16:21:59;9.88;;;2.00;;
31308;SDS011;17936;52.446;10.840;2022-09-09T16:24:25;3.65;;;1.60;;
31308;SDS011;17936;52.446;10.840;2022-09-09T16:26:51;2.58;;;0.85;;
31308;SDS011;17936;52.446;10.840;2022-09-09T16:29:19;6.65;;;0.80;;
31308;SDS011;17936;52.446;10.840;2022-09-09T16:31:46;4.40;;;0.82;;
31308;SDS011;17936;52.446;10.840;2022-09-09T16:34:12;4.80;;;1.25;;